createdAt,value
2023-04-17T00:01:07.674Z,3.10
2023-04-17T00:03:37.969Z,2.92
2023-04-17T00:06:06.661Z,2.90
2023-04-17T00:08:35.300Z,2.80
2023-04-17T00:11:07.915Z,3.03
2023-04-17T00:13:37.627Z,2.97
2023-04-17T00:16:06.361Z,2.90
2023-04-17T00:18:34.621Z,2.92
2023-04-17T00:21:04.604Z,2.60
2023-04-17T00:23:33.106Z,2.58
2023-04-17T00:26:01.475Z,2.70
2023-04-17T00:28:29.779Z,2.60
2023-04-17T00:30:59.029Z,2.40
2023-04-17T00:33:27.262Z,2.60
2023-04-17T00:35:55.552Z,2.80
2023-04-17T00:38:25.211Z,2.40
2023-04-17T00:40:53.610Z,2.77
2023-04-17T00:43:21.885Z,2.22
2023-04-17T00:45:50.507Z,2.90
2023-04-17T00:48:19.406Z,2.33
2023-04-17T00:50:47.686Z,2.58
2023-04-17T00:53:16.235Z,2.88
2023-04-17T00:55:46.241Z,2.47
2023-04-17T00:58:14.723Z,2.13
2023-04-17T01:00:42.982Z,2.30
2023-04-17T01:03:12.020Z,2.38
2023-04-17T01:05:40.786Z,2.45
2023-04-17T01:08:09.046Z,2.38
2023-04-17T01:10:37.418Z,2.25
2023-04-17T01:13:07.943Z,2.15
2023-04-17T01:15:37.400Z,2.30
2023-04-17T01:18:06.570Z,2.42
2023-04-17T01:20:34.960Z,2.50
2023-04-17T01:23:03.265Z,2.47
2023-04-17T01:25:32.849Z,2.00
2023-04-17T01:28:01.654Z,2.33
2023-04-17T01:30:29.922Z,2.60
2023-04-17T01:32:58.238Z,2.70
2023-04-17T01:35:26.524Z,2.45
2023-04-17T01:37:54.748Z,2.55
2023-04-17T01:40:24.918Z,2.65
2023-04-17T01:42:55.140Z,2.65
2023-04-17T01:45:23.361Z,2.47
2023-04-17T01:47:51.648Z,2.72
2023-04-17T01:50:20.090Z,2.75
2023-04-17T01:52:48.366Z,2.60
2023-04-17T01:55:16.608Z,2.85
2023-04-17T01:57:44.915Z,2.92
2023-04-17T02:00:15.514Z,2.95
2023-04-17T02:05:12.102Z,2.95
2023-04-17T02:07:40.345Z,3.05
2023-04-17T02:10:09.624Z,3.20
2023-04-17T02:12:37.876Z,3.63
2023-04-17T02:15:07.429Z,4.00
2023-04-17T02:17:37.053Z,3.55
2023-04-17T02:20:07.519Z,3.43
2023-04-17T02:22:35.879Z,3.95
2023-04-17T02:25:04.307Z,3.47
2023-04-17T02:27:32.646Z,3.72
2023-04-17T02:30:01.095Z,3.75
2023-04-17T02:32:29.382Z,4.00
2023-04-17T02:34:59.085Z,3.92
2023-04-17T02:37:27.339Z,4.20
2023-04-17T02:39:55.813Z,4.35
2023-04-17T02:42:24.177Z,4.30
2023-04-17T02:44:53.812Z,4.45
2023-04-17T02:47:23.149Z,4.57
2023-04-17T02:49:51.668Z,4.70
2023-04-17T02:52:21.352Z,4.75
2023-04-17T02:54:49.710Z,4.93
2023-04-17T02:57:17.984Z,5.15
2023-04-17T02:59:46.231Z,5.22
2023-04-17T03:02:14.687Z,5.32
2023-04-17T03:04:44.104Z,5.40
2023-04-17T03:07:13.350Z,5.68
2023-04-17T03:09:42.966Z,5.93
2023-04-17T03:12:11.275Z,6.43
2023-04-17T03:14:39.533Z,5.90
2023-04-17T03:17:07.820Z,6.80
2023-04-17T03:19:36.130Z,6.38
2023-04-17T03:22:04.719Z,6.07
2023-04-17T03:24:33.111Z,6.03
2023-04-17T03:27:02.943Z,6.07
2023-04-17T03:29:31.362Z,7.80
2023-04-17T03:31:59.607Z,6.88
2023-04-17T03:34:29.114Z,7.22
2023-04-17T03:36:57.361Z,7.15
2023-04-17T03:39:25.677Z,6.57
2023-04-17T03:41:54.019Z,7.03
2023-04-17T03:44:23.691Z,6.80
2023-04-17T03:46:51.951Z,7.37
2023-04-17T03:49:20.191Z,6.88
2023-04-17T03:51:48.492Z,6.32
2023-04-17T03:54:16.711Z,6.85
2023-04-17T03:56:44.918Z,6.50
2023-04-17T03:59:13.343Z,7.10
2023-04-17T04:01:45.381Z,6.45
2023-04-17T04:04:14.969Z,6.97
2023-04-17T04:06:43.366Z,7.63
2023-04-17T04:09:11.904Z,7.00
2023-04-17T04:11:40.335Z,6.22
2023-04-17T04:14:08.587Z,7.15
2023-04-17T04:16:37.222Z,8.18
2023-04-17T04:19:06.948Z,6.55
2023-04-17T04:21:35.543Z,7.35
2023-04-17T04:24:03.808Z,7.75
2023-04-17T04:26:33.269Z,8.80
2023-04-17T04:29:01.605Z,8.68
2023-04-17T04:31:30.660Z,7.75
2023-04-17T04:34:01.342Z,9.32
2023-04-17T04:36:31.273Z,8.35
2023-04-17T04:39:01.021Z,9.15
2023-04-17T04:41:30.097Z,9.85
2023-04-17T04:43:58.476Z,7.15
2023-04-17T04:46:26.747Z,9.38
2023-04-17T04:48:55.052Z,9.88
2023-04-17T04:51:23.446Z,9.02
2023-04-17T04:53:53.040Z,10.75
2023-04-17T04:56:21.649Z,9.25
2023-04-17T04:58:49.877Z,9.70
2023-04-17T05:01:18.640Z,9.40
2023-04-17T05:03:47.078Z,9.95
2023-04-17T05:06:15.875Z,10.18
2023-04-17T05:08:45.079Z,10.77
2023-04-17T05:11:15.358Z,10.00
2023-04-17T05:13:43.662Z,9.93
2023-04-17T05:16:12.043Z,7.32
2023-04-17T05:18:40.277Z,9.50
2023-04-17T05:21:08.511Z,6.68
2023-04-17T05:23:36.805Z,9.45
2023-04-17T05:26:05.806Z,9.88
2023-04-17T05:28:35.622Z,9.77
2023-04-17T05:31:04.098Z,9.93
2023-04-17T05:33:32.416Z,9.60
2023-04-17T05:36:00.909Z,11.43
2023-04-17T05:38:29.227Z,10.60
2023-04-17T05:40:57.502Z,10.02
2023-04-17T05:43:25.815Z,9.90
2023-04-17T05:45:55.650Z,10.25
2023-04-17T05:48:24.118Z,9.90
2023-04-17T05:50:52.350Z,10.13
2023-04-17T05:53:20.714Z,9.38
2023-04-17T05:55:48.960Z,7.95
2023-04-17T05:58:23.909Z,7.38
2023-04-17T06:00:53.225Z,9.32
2023-04-17T06:03:23.640Z,8.85
2023-04-17T06:05:52.527Z,7.25
2023-04-17T06:08:21.575Z,8.20
2023-04-17T06:10:50.818Z,5.80
2023-04-17T06:13:19.569Z,7.38
2023-04-17T06:15:47.897Z,7.15
2023-04-17T06:18:17.559Z,6.70
2023-04-17T06:20:47.395Z,8.20
2023-04-17T06:23:15.710Z,7.07
2023-04-17T06:25:44.065Z,5.03
2023-04-17T06:28:12.305Z,9.05
2023-04-17T06:30:40.818Z,8.13
2023-04-17T06:33:09.219Z,7.35
2023-04-17T06:35:37.760Z,7.25
2023-04-17T06:38:08.979Z,9.60
2023-04-17T06:40:37.290Z,9.77
2023-04-17T06:43:05.554Z,7.72
2023-04-17T06:45:34.113Z,9.38
2023-04-17T06:48:02.474Z,9.15
2023-04-17T06:50:30.918Z,10.98
2023-04-17T06:52:59.178Z,9.20
2023-04-17T06:55:28.976Z,9.63
2023-04-17T06:57:57.268Z,10.00
2023-04-17T07:00:25.858Z,8.52
2023-04-17T07:02:54.302Z,8.55
2023-04-17T07:05:22.702Z,5.78
2023-04-17T07:07:50.985Z,10.00
2023-04-17T07:10:19.647Z,10.07
2023-04-17T07:12:49.344Z,10.57
2023-04-17T07:15:17.713Z,8.33
2023-04-17T07:17:46.067Z,5.15
2023-04-17T07:20:14.282Z,6.90
2023-04-17T07:22:43.250Z,7.60
2023-04-17T07:25:11.531Z,9.35
2023-04-17T07:27:39.788Z,9.60
2023-04-17T07:30:10.452Z,8.98
2023-04-17T07:35:07.745Z,9.70
2023-04-17T07:37:37.050Z,10.98
2023-04-17T07:40:10.300Z,10.57
2023-04-17T07:42:38.723Z,10.85
2023-04-17T07:45:10.038Z,10.68
2023-04-17T07:47:38.461Z,11.35
2023-04-17T07:50:08.116Z,2.90
2023-04-17T07:52:36.564Z,7.30
2023-04-17T07:55:05.253Z,9.05
2023-04-17T07:57:33.606Z,9.32
2023-04-17T08:00:02.005Z,8.98
2023-04-17T08:02:31.663Z,6.55
2023-04-17T08:05:01.610Z,9.27
2023-04-17T08:07:30.090Z,8.05
2023-04-17T08:09:58.349Z,9.23
2023-04-17T08:12:26.865Z,10.32
2023-04-17T08:14:55.272Z,9.27
2023-04-17T08:17:26.532Z,8.98
2023-04-17T08:19:57.528Z,10.23
2023-04-17T08:22:26.523Z,9.07
2023-04-17T08:24:57.920Z,8.25
2023-04-17T08:27:26.485Z,9.18
2023-04-17T08:29:55.585Z,5.47
2023-04-17T08:32:23.882Z,8.98
2023-04-17T08:34:52.671Z,8.10
2023-04-17T08:37:22.320Z,7.28
2023-04-17T08:39:52.495Z,9.47
2023-04-17T08:42:20.715Z,8.43
2023-04-17T08:44:49.157Z,8.85
2023-04-17T08:47:18.687Z,8.95
2023-04-17T08:49:47.330Z,9.48
2023-04-17T08:52:16.757Z,9.45
2023-04-17T08:54:48.342Z,9.20
2023-04-17T08:57:18.171Z,8.75
2023-04-17T08:59:46.917Z,9.73
2023-04-17T09:02:15.522Z,11.63
2023-04-17T09:04:45.317Z,10.05
2023-04-17T09:07:15.997Z,8.98
2023-04-17T09:09:52.861Z,9.82
2023-04-17T09:12:21.935Z,9.48
2023-04-17T09:14:50.536Z,9.10
2023-04-17T09:17:20.470Z,9.23
2023-04-17T09:20:04.074Z,10.40
2023-04-17T09:22:32.347Z,10.68
2023-04-17T09:25:02.438Z,10.02
2023-04-17T09:27:30.801Z,9.68
2023-04-17T09:30:00.923Z,10.07
2023-04-17T09:32:30.566Z,9.65
2023-04-17T09:35:00.322Z,9.43
2023-04-17T09:37:48.696Z,9.55
2023-04-17T09:40:19.132Z,9.38
2023-04-17T09:45:26.126Z,9.35
2023-04-17T09:47:56.786Z,9.45
2023-04-17T09:50:25.894Z,9.90
2023-04-17T09:52:55.118Z,9.30
2023-04-17T09:55:26.766Z,9.68
2023-04-17T09:57:56.629Z,9.02
2023-04-17T10:00:27.081Z,8.60
2023-04-17T10:05:26.063Z,9.65
2023-04-17T10:07:54.400Z,9.93
2023-04-17T10:10:25.319Z,10.35
2023-04-17T10:12:55.901Z,10.23
2023-04-17T10:17:53.067Z,9.80
2023-04-17T10:20:38.150Z,9.50
2023-04-17T10:23:34.643Z,10.02
2023-04-17T10:26:38.839Z,10.57
2023-04-17T10:29:08.537Z,10.57
2023-04-17T10:32:24.274Z,9.70
2023-04-17T10:34:53.625Z,10.15
2023-04-17T10:37:23.297Z,10.07
2023-04-17T10:39:54.200Z,11.85
2023-04-17T10:42:23.775Z,11.50
2023-04-17T10:44:58.720Z,13.03
2023-04-17T10:47:31.931Z,13.43
2023-04-17T10:50:01.072Z,13.57
2023-04-17T10:52:44.670Z,12.65
2023-04-17T10:55:17.433Z,11.73
2023-04-17T10:58:00.818Z,12.10
2023-04-17T11:00:33.109Z,12.23
2023-04-17T11:03:02.973Z,11.80
2023-04-17T11:05:32.275Z,12.80
2023-04-17T11:08:00.756Z,13.07
2023-04-17T11:10:29.191Z,12.10
2023-04-17T11:12:57.559Z,12.00
2023-04-17T11:15:29.460Z,11.32
2023-04-17T11:18:00.038Z,11.32
2023-04-17T11:20:30.485Z,10.18
2023-04-17T11:23:02.368Z,12.15
2023-04-17T11:25:33.764Z,10.85
2023-04-17T11:28:03.755Z,11.32
2023-04-17T11:30:33.529Z,9.75
2023-04-17T11:33:04.396Z,9.85
2023-04-17T11:35:34.504Z,10.80
2023-04-17T11:38:14.386Z,9.23
2023-04-17T11:40:47.171Z,8.30
2023-04-17T11:43:15.796Z,8.13
2023-04-17T11:45:45.887Z,7.82
2023-04-17T11:48:16.763Z,8.45
2023-04-17T11:50:45.772Z,7.40
2023-04-17T11:53:15.656Z,7.45
2023-04-17T11:55:44.609Z,7.75
2023-04-17T11:58:14.119Z,7.63
2023-04-17T12:00:43.520Z,7.45
2023-04-17T12:03:35.777Z,8.85
2023-04-17T12:06:05.929Z,7.95
2023-04-17T12:08:43.716Z,9.15
2023-04-17T12:11:19.641Z,8.32
2023-04-17T12:13:48.177Z,7.97
2023-04-17T12:16:16.521Z,8.45
2023-04-17T12:18:46.735Z,7.20
2023-04-17T12:21:15.366Z,7.07
2023-04-17T12:23:43.980Z,8.20
2023-04-17T12:26:12.325Z,7.10
2023-04-17T12:28:40.705Z,7.35
2023-04-17T12:31:08.999Z,7.90
2023-04-17T12:33:37.376Z,6.90
2023-04-17T12:36:08.093Z,7.90
2023-04-17T12:38:36.475Z,7.70
2023-04-17T12:41:04.753Z,7.10
2023-04-17T12:43:33.691Z,7.85
2023-04-17T12:46:02.960Z,7.53
2023-04-17T12:48:33.003Z,7.15
2023-04-17T12:51:01.681Z,7.20
2023-04-17T12:53:36.317Z,6.40
2023-04-17T12:56:09.256Z,6.60
2023-04-17T12:58:54.833Z,6.60
2023-04-17T13:01:23.469Z,7.07
2023-04-17T13:03:52.065Z,6.30
2023-04-17T13:06:21.513Z,6.45
2023-04-17T13:08:51.199Z,6.50
2023-04-17T13:11:19.476Z,6.27
2023-04-17T13:13:47.744Z,6.72
2023-04-17T13:16:16.039Z,6.32
2023-04-17T13:18:44.426Z,6.32
2023-04-17T13:21:12.729Z,6.13
2023-04-17T13:23:40.952Z,6.05
2023-04-17T13:26:10.626Z,6.93
2023-04-17T13:28:39.862Z,6.35
2023-04-17T13:31:08.252Z,6.53
2023-04-17T13:33:36.698Z,6.07
2023-04-17T13:36:05.539Z,6.50
2023-04-17T13:38:34.113Z,6.32
2023-04-17T13:41:02.452Z,6.15
2023-04-17T13:43:32.134Z,6.28
2023-04-17T13:46:00.412Z,6.60
2023-04-17T13:48:28.766Z,6.47
2023-04-17T13:50:56.977Z,5.90
2023-04-17T13:53:25.257Z,7.13
2023-04-17T13:55:53.568Z,6.20
2023-04-17T13:58:21.829Z,6.45
2023-04-17T14:00:51.721Z,6.45
2023-04-17T14:03:20.162Z,6.43
2023-04-17T14:05:48.577Z,6.15
2023-04-17T14:08:16.942Z,6.88
2023-04-17T14:10:45.250Z,6.22
2023-04-17T14:13:13.460Z,6.70
2023-04-17T14:15:41.981Z,6.97
2023-04-17T14:18:11.655Z,6.28
2023-04-17T14:20:40.718Z,5.68
2023-04-17T14:23:08.996Z,6.78
2023-04-17T14:25:37.264Z,6.95
2023-04-17T14:28:05.539Z,5.30
2023-04-17T14:30:33.911Z,5.47
2023-04-17T14:33:02.284Z,5.18
2023-04-17T14:35:32.927Z,5.07
2023-04-17T14:40:29.378Z,4.57
2023-04-17T14:42:57.626Z,5.35
2023-04-17T14:45:25.893Z,2.85
2023-04-17T14:47:54.253Z,3.42
2023-04-17T14:50:22.534Z,3.60
2023-04-17T14:52:52.542Z,2.40
2023-04-17T14:55:20.788Z,1.55
2023-04-17T14:57:49.064Z,2.90
2023-04-17T15:00:18.117Z,2.50
2023-04-17T15:02:46.636Z,2.63
2023-04-17T15:05:18.805Z,3.05
2023-04-17T15:07:47.233Z,3.55
2023-04-17T15:10:17.309Z,3.53
2023-04-17T15:12:45.598Z,3.33
2023-04-17T15:15:13.879Z,3.20
2023-04-17T15:17:42.397Z,3.22
2023-04-17T15:20:11.163Z,3.58
2023-04-17T15:22:39.395Z,2.40
2023-04-17T15:25:08.168Z,3.17
2023-04-17T15:27:37.798Z,2.13
2023-04-17T15:30:08.879Z,4.40
2023-04-17T15:32:37.455Z,3.13
2023-04-17T15:35:06.516Z,3.17
2023-04-17T15:37:34.856Z,3.88
2023-04-17T15:40:03.427Z,3.03
2023-04-17T15:42:31.803Z,3.65
2023-04-17T15:45:02.236Z,3.38
2023-04-17T15:47:30.520Z,3.30
2023-04-17T15:49:58.920Z,3.35
2023-04-17T15:52:27.218Z,2.72
2023-04-17T15:54:55.513Z,4.47
2023-04-17T15:57:24.249Z,3.70
2023-04-17T15:59:52.513Z,2.67
2023-04-17T16:02:22.314Z,4.47
2023-04-17T16:04:50.637Z,2.67
2023-04-17T16:07:19.970Z,2.35
2023-04-17T16:09:48.287Z,4.68
2023-04-17T16:12:16.529Z,3.38
2023-04-17T16:14:44.883Z,4.80
2023-04-17T16:17:13.117Z,3.85
2023-04-17T16:19:42.770Z,3.75
2023-04-17T16:22:11.046Z,4.07
2023-04-17T16:24:39.368Z,3.90
2023-04-17T16:27:07.663Z,3.60
2023-04-17T16:29:36.012Z,3.67
2023-04-17T16:32:04.298Z,3.17
2023-04-17T16:34:32.629Z,3.30
2023-04-17T16:37:03.376Z,2.95
2023-04-17T16:39:31.692Z,3.35
2023-04-17T16:41:59.992Z,3.30
2023-04-17T16:44:28.758Z,3.42
2023-04-17T16:49:28.763Z,3.70
2023-04-17T16:51:56.957Z,3.40
2023-04-17T16:54:26.608Z,3.45
2023-04-17T16:56:54.897Z,3.10
2023-04-17T16:59:23.246Z,3.10
2023-04-17T17:01:52.712Z,3.42
2023-04-17T17:04:21.067Z,3.03
2023-04-17T17:06:49.356Z,3.92
2023-04-17T17:09:17.708Z,3.00
2023-04-17T17:11:47.455Z,3.45
2023-04-17T17:14:16.273Z,3.38
2023-04-17T17:16:45.379Z,3.58
2023-04-17T17:19:14.698Z,3.42
2023-04-17T17:21:43.811Z,3.80
2023-04-17T17:24:12.097Z,3.83
2023-04-17T17:26:40.400Z,3.55
2023-04-17T17:29:10.098Z,3.83
2023-04-17T17:31:38.606Z,3.63
2023-04-17T17:34:22.498Z,3.80
2023-04-17T17:36:54.764Z,3.40
2023-04-17T17:39:23.148Z,3.97
2023-04-17T17:41:51.529Z,3.88
2023-04-17T17:44:33.975Z,4.93
2023-04-17T17:47:03.847Z,5.00
2023-04-17T17:49:33.345Z,4.50
2023-04-17T17:52:01.719Z,4.97
2023-04-17T17:54:29.945Z,5.50
2023-04-17T17:56:58.142Z,6.30
2023-04-17T17:59:26.751Z,4.63
2023-04-17T18:01:57.377Z,4.90
2023-04-17T18:04:26.070Z,5.65
2023-04-17T18:06:54.765Z,5.13
2023-04-17T18:09:23.009Z,4.95
2023-04-17T18:11:51.297Z,5.00
2023-04-17T18:14:19.571Z,4.72
2023-04-17T18:16:48.517Z,4.90
2023-04-17T18:19:18.199Z,4.63
2023-04-17T18:21:47.779Z,5.33
2023-04-17T18:24:16.222Z,4.90
2023-04-17T18:26:44.619Z,5.70
2023-04-17T18:29:12.832Z,5.35
2023-04-17T18:31:41.100Z,5.53
2023-04-17T18:34:09.890Z,5.65
2023-04-17T18:36:39.514Z,5.38
2023-04-17T18:39:07.788Z,5.30
2023-04-17T18:41:36.009Z,5.45
2023-04-17T18:44:04.217Z,6.05
2023-04-17T18:46:32.493Z,5.78
2023-04-17T18:49:00.834Z,5.80
2023-04-17T18:51:29.203Z,5.72
2023-04-17T18:53:58.888Z,5.43
2023-04-17T18:56:27.220Z,5.43
2023-04-17T18:58:55.512Z,5.47
2023-04-17T19:01:23.860Z,5.10
2023-04-17T19:03:52.989Z,4.82
2023-04-17T19:06:21.324Z,5.30
2023-04-17T19:08:49.545Z,5.43
2023-04-17T19:11:19.565Z,4.95
2023-04-17T19:13:47.880Z,5.10
2023-04-17T19:16:16.165Z,5.47
2023-04-17T19:18:44.481Z,4.50
2023-04-17T19:21:12.836Z,5.07
2023-04-17T19:23:41.266Z,5.22
2023-04-17T19:26:10.157Z,5.05
2023-04-17T19:28:39.818Z,5.07
2023-04-17T19:31:08.300Z,4.40
2023-04-17T19:33:36.795Z,5.05
2023-04-17T19:36:05.203Z,5.55
2023-04-17T19:38:33.610Z,5.30
2023-04-17T19:41:14.510Z,5.28
2023-04-17T19:43:44.347Z,5.22
2023-04-17T19:46:14.288Z,3.92
2023-04-17T19:48:44.779Z,3.75
2023-04-17T19:51:14.337Z,5.75
2023-04-17T19:53:43.983Z,6.63
2023-04-17T19:56:12.263Z,5.70
2023-04-17T19:58:41.429Z,7.05
2023-04-17T20:01:11.198Z,6.60
2023-04-17T20:03:42.190Z,5.85
2023-04-17T20:06:10.695Z,6.97
2023-04-17T20:08:38.922Z,6.78
2023-04-17T20:11:07.331Z,7.07
2023-04-17T20:13:35.783Z,6.60
2023-04-17T20:16:04.052Z,6.93
2023-04-17T20:18:37.403Z,6.55
2023-04-17T20:21:07.151Z,6.97
2023-04-17T20:23:35.541Z,5.77
2023-04-17T20:26:03.929Z,6.38
2023-04-17T20:28:32.157Z,5.05
2023-04-17T20:31:00.625Z,5.55
2023-04-17T20:33:29.018Z,6.20
2023-04-17T20:35:58.753Z,5.57
2023-04-17T20:38:26.991Z,5.53
2023-04-17T20:40:55.273Z,5.47
2023-04-17T20:43:23.490Z,5.82
2023-04-17T20:45:51.788Z,5.32
2023-04-17T20:48:20.094Z,5.22
2023-04-17T20:50:48.378Z,5.10
2023-04-17T20:53:18.061Z,4.63
2023-04-17T20:55:47.189Z,4.40
2023-04-17T20:58:15.548Z,5.22
2023-04-17T21:00:54.301Z,4.07
2023-04-17T21:03:30.176Z,4.30
2023-04-17T21:05:58.592Z,3.78
2023-04-17T21:08:28.243Z,3.80
2023-04-17T21:10:56.639Z,3.83
2023-04-17T21:13:25.026Z,3.22
2023-04-17T21:15:53.452Z,3.67
2023-04-17T21:18:21.812Z,3.20
2023-04-17T21:20:50.044Z,2.55
2023-04-17T21:23:18.728Z,3.05
2023-04-17T21:25:50.482Z,2.90
2023-04-17T21:28:18.761Z,2.05
2023-04-17T21:30:47.129Z,2.10
2023-04-17T21:33:15.410Z,2.95
2023-04-17T21:35:43.637Z,3.20
2023-04-17T21:38:11.977Z,2.92
2023-04-17T21:40:50.625Z,2.58
2023-04-17T21:43:20.881Z,1.75
2023-04-17T21:45:49.983Z,2.97
2023-04-17T21:48:18.483Z,2.67
2023-04-17T21:50:46.736Z,3.42
2023-04-17T21:53:15.037Z,2.13
2023-04-17T21:55:43.318Z,3.42
2023-04-17T21:58:11.581Z,3.50
2023-04-17T22:00:41.329Z,2.53
2023-04-17T22:03:09.655Z,3.10
2023-04-17T22:05:38.089Z,3.35
2023-04-17T22:08:06.586Z,3.58
2023-04-17T22:10:34.973Z,3.72
2023-04-17T22:13:03.458Z,3.83
2023-04-17T22:15:32.000Z,3.53
2023-04-17T22:18:01.861Z,3.92
2023-04-17T22:20:30.151Z,3.30
2023-04-17T22:22:58.492Z,3.50
2023-04-17T22:25:26.766Z,3.92
2023-04-17T22:27:55.071Z,3.13
2023-04-17T22:30:23.434Z,3.80
2023-04-17T22:32:51.925Z,4.50
2023-04-17T22:35:21.552Z,4.05
2023-04-17T22:37:49.757Z,4.28
2023-04-17T22:40:18.213Z,4.10
2023-04-17T22:42:46.527Z,3.78
2023-04-17T22:45:14.882Z,3.83
2023-04-17T22:47:43.205Z,3.17
2023-04-17T22:50:11.773Z,3.03
2023-04-17T22:52:41.369Z,4.00
2023-04-17T22:55:09.853Z,4.30
2023-04-17T22:57:38.129Z,4.35
2023-04-17T23:00:08.762Z,4.32
2023-04-17T23:05:06.497Z,4.60
2023-04-17T23:07:34.901Z,5.20
2023-04-17T23:10:04.870Z,5.45
2023-04-17T23:12:33.207Z,5.25
2023-04-17T23:15:01.527Z,5.40
2023-04-17T23:17:29.857Z,3.30
2023-04-17T23:19:58.094Z,4.68
2023-04-17T23:22:26.440Z,5.40
2023-04-17T23:24:54.752Z,5.50
2023-04-17T23:27:24.410Z,2.00
2023-04-17T23:29:52.755Z,5.70
2023-04-17T23:32:21.177Z,6.35
2023-04-17T23:34:49.423Z,5.53
2023-04-17T23:37:17.765Z,6.20
2023-04-17T23:39:46.024Z,6.65
2023-04-17T23:42:14.434Z,6.78
2023-04-17T23:44:44.084Z,6.95
2023-04-17T23:47:13.878Z,6.82
2023-04-17T23:49:42.108Z,7.27
2023-04-17T23:52:10.359Z,7.18
2023-04-17T23:54:38.623Z,6.43
2023-04-17T23:57:06.961Z,7.07
2023-04-17T23:59:35.822Z,7.10
